sensor_id;sensor_type;location;lat;lon;timestamp;pressure;altitude;pressure_sealevel;temperature;humidity
73918;BME280;62265;52.280;5.162;2022-08-19T00:00:08;101442.91;;;25.39;55.11
73918;BME280;62265;52.280;5.162;2022-08-19T00:02:36;101440.33;;;25.37;55.17
73918;BME280;62265;52.280;5.162;2022-08-19T00:05:04;101435.87;;;25.41;55.31
73918;BME280;62265;52.280;5.162;2022-08-19T00:07:31;101429.37;;;25.44;55.26
73918;BME280;62265;52.280;5.162;2022-08-19T00:09:58;101433.18;;;25.45;55.05
73918;BME280;62265;52.280;5.162;2022-08-19T00:12:25;101431.88;;;25.41;55.25
73918;BME280;62265;52.280;5.162;2022-08-19T00:14:52;101435.53;;;25.38;55.44
73918;BME280;62265;52.280;5.162;2022-08-19T00:17:20;101443.36;;;25.32;55.73
73918;BME280;62265;52.280;5.162;2022-08-19T00:19:47;101444.25;;;25.23;55.87
73918;BME280;62265;52.280;5.162;2022-08-19T00:22:14;101444.11;;;25.14;56.26
73918;BME280;62265;52.280;5.162;2022-08-19T00:24:40;101447.86;;;25.14;56.22
73918;BME280;62265;52.280;5.162;2022-08-19T00:27:07;101447.09;;;25.15;56.34
73918;BME280;62265;52.280;5.162;2022-08-19T00:29:34;101449.48;;;25.14;56.12
73918;BME280;62265;52.280;5.162;2022-08-19T00:32:00;101447.79;;;25.08;56.39
73918;BME280;62265;52.280;5.162;2022-08-19T00:34:26;101443.73;;;25.02;56.62
73918;BME280;62265;52.280;5.162;2022-08-19T00:36:53;101440.61;;;25.00;56.54
73918;BME280;62265;52.280;5.162;2022-08-19T00:39:20;101435.45;;;24.94;56.53
73918;BME280;62265;52.280;5.162;2022-08-19T00:41:49;101434.70;;;24.90;56.96
73918;BME280;62265;52.280;5.162;2022-08-19T00:44:18;101433.04;;;24.86;57.08
73918;BME280;62265;52.280;5.162;2022-08-19T00:46:47;101432.80;;;24.82;56.98
73918;BME280;62265;52.280;5.162;2022-08-19T00:49:17;101431.07;;;24.80;57.10
73918;BME280;62265;52.280;5.162;2022-08-19T00:51:48;101426.77;;;24.80;57.03
73918;BME280;62265;52.280;5.162;2022-08-19T00:54:17;101424.89;;;24.82;56.76
73918;BME280;62265;52.280;5.162;2022-08-19T00:56:44;101421.19;;;24.87;56.93
73918;BME280;62265;52.280;5.162;2022-08-19T00:59:13;101418.87;;;24.92;56.65
73918;BME280;62265;52.280;5.162;2022-08-19T01:01:50;101424.12;;;24.99;56.59
73918;BME280;62265;52.280;5.162;2022-08-19T01:04:16;101431.53;;;25.09;56.31
73918;BME280;62265;52.280;5.162;2022-08-19T01:06:42;101435.86;;;25.05;55.99
73918;BME280;62265;52.280;5.162;2022-08-19T01:09:09;101437.11;;;24.93;56.07
73918;BME280;62265;52.280;5.162;2022-08-19T01:11:40;101438.05;;;24.80;56.77
73918;BME280;62265;52.280;5.162;2022-08-19T01:14:09;101439.66;;;24.67;57.39
73918;BME280;62265;52.280;5.162;2022-08-19T01:16:37;101439.19;;;24.62;57.57
73918;BME280;62265;52.280;5.162;2022-08-19T01:19:10;101443.44;;;24.69;57.32
73918;BME280;62265;52.280;5.162;2022-08-19T01:21:42;101440.35;;;24.63;57.20
73918;BME280;62265;52.280;5.162;2022-08-19T01:24:10;101440.73;;;24.52;57.55
73918;BME280;62265;52.280;5.162;2022-08-19T01:26:40;101442.22;;;24.42;57.80
73918;BME280;62265;52.280;5.162;2022-08-19T01:29:08;101445.59;;;24.33;58.10
73918;BME280;62265;52.280;5.162;2022-08-19T01:31:35;101445.64;;;24.24;58.47
73918;BME280;62265;52.280;5.162;2022-08-19T01:34:02;101444.12;;;24.17;58.33
73918;BME280;62265;52.280;5.162;2022-08-19T01:36:31;101445.51;;;24.14;58.74
73918;BME280;62265;52.280;5.162;2022-08-19T01:39:00;101445.72;;;24.12;58.82
73918;BME280;62265;52.280;5.162;2022-08-19T01:41:27;101443.59;;;24.15;58.66
73918;BME280;62265;52.280;5.162;2022-08-19T01:43:54;101445.57;;;24.16;58.13
73918;BME280;62265;52.280;5.162;2022-08-19T01:46:21;101447.29;;;24.13;58.23
73918;BME280;62265;52.280;5.162;2022-08-19T01:48:48;101448.79;;;24.09;58.35
73918;BME280;62265;52.280;5.162;2022-08-19T01:51:15;101454.67;;;24.06;58.45
73918;BME280;62265;52.280;5.162;2022-08-19T01:53:41;101455.56;;;24.02;58.80
73918;BME280;62265;52.280;5.162;2022-08-19T01:56:08;101459.98;;;24.00;58.77
73918;BME280;62265;52.280;5.162;2022-08-19T01:58:39;101453.99;;;23.97;58.94
73918;BME280;62265;52.280;5.162;2022-08-19T02:01:08;101451.35;;;23.97;59.14
73918;BME280;62265;52.280;5.162;2022-08-19T02:03:35;101450.79;;;23.99;59.09
73918;BME280;62265;52.280;5.162;2022-08-19T02:06:03;101451.59;;;24.00;58.90
73918;BME280;62265;52.280;5.162;2022-08-19T02:08:33;101451.46;;;23.99;58.87
73918;BME280;62265;52.280;5.162;2022-08-19T02:11:00;101451.60;;;24.05;59.11
73918;BME280;62265;52.280;5.162;2022-08-19T02:13:27;101452.05;;;24.16;58.34
73918;BME280;62265;52.280;5.162;2022-08-19T02:15:53;101454.70;;;24.19;57.81
73918;BME280;62265;52.280;5.162;2022-08-19T02:18:20;101456.58;;;24.12;57.88
73918;BME280;62265;52.280;5.162;2022-08-19T02:20:47;101461.06;;;24.05;58.26
73918;BME280;62265;52.280;5.162;2022-08-19T02:23:15;101460.29;;;23.94;58.74
73918;BME280;62265;52.280;5.162;2022-08-19T02:25:45;101462.87;;;23.87;59.09
73918;BME280;62265;52.280;5.162;2022-08-19T02:28:13;101456.88;;;23.82;59.50
73918;BME280;62265;52.280;5.162;2022-08-19T02:30:41;101458.10;;;23.80;59.61
73918;BME280;62265;52.280;5.162;2022-08-19T02:33:08;101456.50;;;23.82;59.86
73918;BME280;62265;52.280;5.162;2022-08-19T02:35:35;101459.24;;;23.81;59.75
73918;BME280;62265;52.280;5.162;2022-08-19T02:38:01;101459.52;;;23.85;59.83
73918;BME280;62265;52.280;5.162;2022-08-19T02:40:30;101457.23;;;23.87;59.80
73918;BME280;62265;52.280;5.162;2022-08-19T02:42:57;101454.28;;;23.88;59.83
73918;BME280;62265;52.280;5.162;2022-08-19T02:45:24;101452.79;;;23.90;59.49
73918;BME280;62265;52.280;5.162;2022-08-19T02:47:50;101448.00;;;23.96;59.21
73918;BME280;62265;52.280;5.162;2022-08-19T02:50:17;101447.55;;;24.02;59.13
73918;BME280;62265;52.280;5.162;2022-08-19T02:52:44;101451.50;;;24.11;58.40
73918;BME280;62265;52.280;5.162;2022-08-19T02:55:11;101447.96;;;24.12;58.13
73918;BME280;62265;52.280;5.162;2022-08-19T02:57:37;101445.77;;;24.19;58.46
73918;BME280;62265;52.280;5.162;2022-08-19T03:00:05;101436.77;;;24.39;57.82
73918;BME280;62265;52.280;5.162;2022-08-19T03:02:32;101430.22;;;24.58;57.03
73918;BME280;62265;52.280;5.162;2022-08-19T03:04:59;101430.43;;;24.66;56.10
73918;BME280;62265;52.280;5.162;2022-08-19T03:07:26;101428.19;;;24.55;55.86
73918;BME280;62265;52.280;5.162;2022-08-19T03:09:52;101431.60;;;24.39;56.28
73918;BME280;62265;52.280;5.162;2022-08-19T03:12:19;101435.20;;;24.26;56.84
73918;BME280;62265;52.280;5.162;2022-08-19T03:14:46;101441.09;;;24.16;56.93
73918;BME280;62265;52.280;5.162;2022-08-19T03:17:13;101443.80;;;24.04;57.21
73918;BME280;62265;52.280;5.162;2022-08-19T03:19:40;101439.30;;;24.00;57.70
73918;BME280;62265;52.280;5.162;2022-08-19T03:22:07;101440.98;;;24.02;57.72
73918;BME280;62265;52.280;5.162;2022-08-19T03:24:34;101437.71;;;24.04;57.65
73918;BME280;62265;52.280;5.162;2022-08-19T03:27:01;101432.92;;;24.09;57.29
73918;BME280;62265;52.280;5.162;2022-08-19T03:29:31;101429.20;;;24.08;57.14
73918;BME280;62265;52.280;5.162;2022-08-19T03:31:59;101423.86;;;24.02;57.21
73918;BME280;62265;52.280;5.162;2022-08-19T03:34:28;101417.80;;;23.96;57.23
73918;BME280;62265;52.280;5.162;2022-08-19T03:36:59;101416.91;;;23.86;57.69
73918;BME280;62265;52.280;5.162;2022-08-19T03:39:27;101416.04;;;23.84;57.76
73918;BME280;62265;52.280;5.162;2022-08-19T03:41:54;101414.48;;;23.80;58.15
73918;BME280;62265;52.280;5.162;2022-08-19T03:44:22;101415.95;;;23.80;58.32
73918;BME280;62265;52.280;5.162;2022-08-19T03:46:52;101414.66;;;23.75;58.33
73918;BME280;62265;52.280;5.162;2022-08-19T03:49:19;101415.03;;;23.69;58.52
73918;BME280;62265;52.280;5.162;2022-08-19T03:51:48;101418.32;;;23.64;58.81
73918;BME280;62265;52.280;5.162;2022-08-19T03:54:17;101424.77;;;23.61;58.77
73918;BME280;62265;52.280;5.162;2022-08-19T03:56:45;101430.28;;;23.58;58.69
73918;BME280;62265;52.280;5.162;2022-08-19T03:59:14;101433.95;;;23.60;58.75
73918;BME280;62265;52.280;5.162;2022-08-19T04:01:41;101433.37;;;23.64;58.41
73918;BME280;62265;52.280;5.162;2022-08-19T04:04:09;101430.65;;;23.64;58.43
73918;BME280;62265;52.280;5.162;2022-08-19T04:06:38;101430.10;;;23.57;58.46
73918;BME280;62265;52.280;5.162;2022-08-19T04:09:09;101432.16;;;23.55;58.65
73918;BME280;62265;52.280;5.162;2022-08-19T04:11:39;101432.54;;;23.57;58.89
73918;BME280;62265;52.280;5.162;2022-08-19T04:14:05;101433.50;;;23.65;58.47
73918;BME280;62265;52.280;5.162;2022-08-19T04:16:32;101430.49;;;23.67;58.43
73918;BME280;62265;52.280;5.162;2022-08-19T04:19:00;101428.31;;;23.66;58.36
73918;BME280;62265;52.280;5.162;2022-08-19T04:21:28;101425.27;;;23.67;58.26
73918;BME280;62265;52.280;5.162;2022-08-19T04:23:55;101421.91;;;23.64;58.33
73918;BME280;62265;52.280;5.162;2022-08-19T04:26:26;101422.93;;;23.61;58.37
73918;BME280;62265;52.280;5.162;2022-08-19T04:28:53;101417.53;;;23.60;58.41
73918;BME280;62265;52.280;5.162;2022-08-19T04:31:22;101412.14;;;23.57;58.44
73918;BME280;62265;52.280;5.162;2022-08-19T04:33:49;101410.74;;;23.56;58.60
73918;BME280;62265;52.280;5.162;2022-08-19T04:36:17;101413.40;;;23.53;58.60
73918;BME280;62265;52.280;5.162;2022-08-19T04:38:44;101418.76;;;23.48;58.68
73918;BME280;62265;52.280;5.162;2022-08-19T04:41:11;101417.54;;;23.40;58.94
73918;BME280;62265;52.280;5.162;2022-08-19T04:43:38;101418.81;;;23.32;59.24
73918;BME280;62265;52.280;5.162;2022-08-19T04:46:06;101418.50;;;23.25;59.14
73918;BME280;62265;52.280;5.162;2022-08-19T04:48:33;101419.79;;;23.26;60.45
73918;BME280;62265;52.280;5.162;2022-08-19T04:51:00;101422.90;;;23.55;60.24
73918;BME280;62265;52.280;5.162;2022-08-19T04:53:28;101423.51;;;23.90;58.84
73918;BME280;62265;52.280;5.162;2022-08-19T04:55:56;101420.49;;;24.25;57.60
73918;BME280;62265;52.280;5.162;2022-08-19T04:58:25;101424.14;;;24.55;56.49
73918;BME280;62265;52.280;5.162;2022-08-19T05:00:53;101433.06;;;24.81;55.26
73918;BME280;62265;52.280;5.162;2022-08-19T05:03:21;101433.22;;;25.05;54.73
73918;BME280;62265;52.280;5.162;2022-08-19T05:05:48;101435.31;;;25.20;54.01
73918;BME280;62265;52.280;5.162;2022-08-19T05:08:18;101440.43;;;25.34;53.53
73918;BME280;62265;52.280;5.162;2022-08-19T05:10:47;101449.21;;;25.45;52.92
73918;BME280;62265;52.280;5.162;2022-08-19T05:13:16;101456.54;;;25.48;52.93
73918;BME280;62265;52.280;5.162;2022-08-19T05:15:45;101459.44;;;25.54;52.69
73918;BME280;62265;52.280;5.162;2022-08-19T05:18:19;101459.92;;;25.59;52.43
73918;BME280;62265;52.280;5.162;2022-08-19T05:20:45;101461.33;;;25.63;52.26
73918;BME280;62265;52.280;5.162;2022-08-19T05:23:12;101457.75;;;25.67;52.08
73918;BME280;62265;52.280;5.162;2022-08-19T05:25:39;101450.35;;;25.53;52.68
73918;BME280;62265;52.280;5.162;2022-08-19T05:28:06;101447.22;;;25.34;53.35
73918;BME280;62265;52.280;5.162;2022-08-19T05:30:33;101443.80;;;25.24;53.84
73918;BME280;62265;52.280;5.162;2022-08-19T05:33:00;101442.93;;;25.09;54.82
73918;BME280;62265;52.280;5.162;2022-08-19T05:35:27;101443.41;;;24.83;55.94
73918;BME280;62265;52.280;5.162;2022-08-19T05:37:54;101441.72;;;24.58;56.75
73918;BME280;62265;52.280;5.162;2022-08-19T05:40:21;101443.94;;;24.41;57.70
73918;BME280;62265;52.280;5.162;2022-08-19T05:42:48;101442.50;;;24.28;58.34
73918;BME280;62265;52.280;5.162;2022-08-19T05:45:15;101441.73;;;24.14;59.18
73918;BME280;62265;52.280;5.162;2022-08-19T05:47:41;101440.56;;;24.11;59.20
73918;BME280;62265;52.280;5.162;2022-08-19T05:50:08;101440.97;;;24.15;59.26
73918;BME280;62265;52.280;5.162;2022-08-19T05:52:37;101440.34;;;24.32;59.03
73918;BME280;62265;52.280;5.162;2022-08-19T05:55:04;101437.66;;;24.49;58.75
73918;BME280;62265;52.280;5.162;2022-08-19T05:57:32;101438.16;;;24.63;58.59
73918;BME280;62265;52.280;5.162;2022-08-19T05:59:58;101436.54;;;24.71;58.59
73918;BME280;62265;52.280;5.162;2022-08-19T06:02:25;101439.32;;;24.80;58.61
73918;BME280;62265;52.280;5.162;2022-08-19T06:04:52;101436.76;;;24.86;58.51
73918;BME280;62265;52.280;5.162;2022-08-19T06:07:19;101437.88;;;24.92;58.69
73918;BME280;62265;52.280;5.162;2022-08-19T06:09:46;101438.12;;;24.97;58.65
73918;BME280;62265;52.280;5.162;2022-08-19T06:12:13;101441.79;;;25.02;58.76
73918;BME280;62265;52.280;5.162;2022-08-19T06:14:39;101442.64;;;25.06;58.69
73918;BME280;62265;52.280;5.162;2022-08-19T06:17:06;101440.55;;;25.12;58.49
73918;BME280;62265;52.280;5.162;2022-08-19T06:19:33;101444.81;;;25.19;57.89
73918;BME280;62265;52.280;5.162;2022-08-19T06:22:00;101441.08;;;25.27;57.88
73918;BME280;62265;52.280;5.162;2022-08-19T06:24:29;101435.63;;;25.34;58.04
73918;BME280;62265;52.280;5.162;2022-08-19T06:26:57;101433.25;;;25.40;57.97
73918;BME280;62265;52.280;5.162;2022-08-19T06:29:26;101433.56;;;25.43;58.46
73918;BME280;62265;52.280;5.162;2022-08-19T06:31:55;101431.95;;;25.43;58.59
73918;BME280;62265;52.280;5.162;2022-08-19T06:34:23;101432.23;;;25.44;58.60
73918;BME280;62265;52.280;5.162;2022-08-19T06:36:51;101429.23;;;25.45;58.68
73918;BME280;62265;52.280;5.162;2022-08-19T06:39:21;101429.23;;;25.47;58.67
73918;BME280;62265;52.280;5.162;2022-08-19T06:41:50;101430.40;;;25.50;58.72
73918;BME280;62265;52.280;5.162;2022-08-19T06:44:18;101432.84;;;25.53;58.55
73918;BME280;62265;52.280;5.162;2022-08-19T06:46:46;101434.85;;;25.55;58.64
73918;BME280;62265;52.280;5.162;2022-08-19T06:49:13;101438.69;;;25.57;58.70
73918;BME280;62265;52.280;5.162;2022-08-19T06:51:42;101435.95;;;25.57;58.42
73918;BME280;62265;52.280;5.162;2022-08-19T06:54:10;101441.05;;;25.63;58.40
73918;BME280;62265;52.280;5.162;2022-08-19T06:56:37;101445.10;;;25.67;58.30
73918;BME280;62265;52.280;5.162;2022-08-19T06:59:06;101455.16;;;25.66;58.48
73918;BME280;62265;52.280;5.162;2022-08-19T07:01:35;101454.09;;;25.65;58.59
73918;BME280;62265;52.280;5.162;2022-08-19T07:04:04;101454.06;;;25.64;58.57
73918;BME280;62265;52.280;5.162;2022-08-19T07:06:31;101458.52;;;25.66;58.48
73918;BME280;62265;52.280;5.162;2022-08-19T07:08:58;101455.69;;;25.65;58.44
73918;BME280;62265;52.280;5.162;2022-08-19T07:11:24;101456.49;;;25.66;58.53
73918;BME280;62265;52.280;5.162;2022-08-19T07:13:51;101460.29;;;25.71;58.53
73918;BME280;62265;52.280;5.162;2022-08-19T07:16:19;101461.99;;;25.72;58.44
73918;BME280;62265;52.280;5.162;2022-08-19T07:18:46;101464.36;;;25.70;58.66
73918;BME280;62265;52.280;5.162;2022-08-19T07:21:15;101467.43;;;25.67;58.64
73918;BME280;62265;52.280;5.162;2022-08-19T07:23:43;101466.55;;;25.63;59.00
73918;BME280;62265;52.280;5.162;2022-08-19T07:26:13;101464.98;;;25.56;59.23
73918;BME280;62265;52.280;5.162;2022-08-19T07:28:40;101469.04;;;25.51;59.46
73918;BME280;62265;52.280;5.162;2022-08-19T07:31:09;101468.44;;;25.52;59.39
73918;BME280;62265;52.280;5.162;2022-08-19T07:33:36;101468.71;;;25.54;59.46
73918;BME280;62265;52.280;5.162;2022-08-19T07:36:04;101467.39;;;25.56;59.52
73918;BME280;62265;52.280;5.162;2022-08-19T07:38:31;101465.74;;;25.59;59.45
73918;BME280;62265;52.280;5.162;2022-08-19T07:40:59;101467.86;;;25.62;59.46
73918;BME280;62265;52.280;5.162;2022-08-19T07:43:25;101471.62;;;25.64;59.59
73918;BME280;62265;52.280;5.162;2022-08-19T07:45:55;101471.32;;;25.64;59.59
73918;BME280;62265;52.280;5.162;2022-08-19T07:48:23;101467.50;;;25.61;59.54
73918;BME280;62265;52.280;5.162;2022-08-19T07:50:51;101469.29;;;25.65;59.69
73918;BME280;62265;52.280;5.162;2022-08-19T07:53:17;101469.69;;;25.68;59.51
73918;BME280;62265;52.280;5.162;2022-08-19T07:55:44;101473.46;;;25.70;59.21
73918;BME280;62265;52.280;5.162;2022-08-19T07:58:13;101475.57;;;25.70;59.31
73918;BME280;62265;52.280;5.162;2022-08-19T08:00:40;101478.03;;;25.71;59.41
73918;BME280;62265;52.280;5.162;2022-08-19T08:03:08;101478.86;;;25.71;59.38
73918;BME280;62265;52.280;5.162;2022-08-19T08:05:34;101482.19;;;25.68;59.42
73918;BME280;62265;52.280;5.162;2022-08-19T08:08:02;101484.10;;;25.65;59.55
73918;BME280;62265;52.280;5.162;2022-08-19T08:10:29;101486.06;;;25.58;59.76
73918;BME280;62265;52.280;5.162;2022-08-19T08:12:55;101487.23;;;25.59;59.74
73918;BME280;62265;52.280;5.162;2022-08-19T08:15:22;101487.31;;;25.58;59.80
73918;BME280;62265;52.280;5.162;2022-08-19T08:17:49;101489.29;;;25.58;60.00
73918;BME280;62265;52.280;5.162;2022-08-19T08:20:18;101489.18;;;25.56;59.90
73918;BME280;62265;52.280;5.162;2022-08-19T08:22:46;101493.44;;;25.55;59.96
73918;BME280;62265;52.280;5.162;2022-08-19T08:25:15;101497.87;;;25.53;60.12
73918;BME280;62265;52.280;5.162;2022-08-19T08:27:44;101500.36;;;25.49;60.35
73918;BME280;62265;52.280;5.162;2022-08-19T08:30:14;101502.49;;;25.51;60.30
73918;BME280;62265;52.280;5.162;2022-08-19T08:32:41;101499.43;;;25.56;60.23
73918;BME280;62265;52.280;5.162;2022-08-19T08:35:12;101499.22;;;25.58;60.06
73918;BME280;62265;52.280;5.162;2022-08-19T08:37:39;101501.64;;;25.59;59.88
73918;BME280;62265;52.280;5.162;2022-08-19T08:40:16;101504.64;;;25.58;59.96
73918;BME280;62265;52.280;5.162;2022-08-19T08:42:51;101502.92;;;25.58;59.90
73918;BME280;62265;52.280;5.162;2022-08-19T08:45:21;101506.37;;;25.62;59.80
73918;BME280;62265;52.280;5.162;2022-08-19T08:47:51;101505.20;;;25.63;59.75
73918;BME280;62265;52.280;5.162;2022-08-19T08:50:24;101504.40;;;25.62;59.76
73918;BME280;62265;52.280;5.162;2022-08-19T08:52:55;101505.42;;;25.61;59.99
73918;BME280;62265;52.280;5.162;2022-08-19T08:55:26;101505.53;;;25.60;60.11
73918;BME280;62265;52.280;5.162;2022-08-19T08:57:56;101504.54;;;25.61;60.10
73918;BME280;62265;52.280;5.162;2022-08-19T09:00:28;101506.03;;;25.62;60.16
73918;BME280;62265;52.280;5.162;2022-08-19T09:02:57;101507.74;;;25.61;60.26
73918;BME280;62265;52.280;5.162;2022-08-19T09:05:28;101507.55;;;25.61;60.22
73918;BME280;62265;52.280;5.162;2022-08-19T09:08:02;101508.72;;;25.67;59.93
73918;BME280;62265;52.280;5.162;2022-08-19T09:10:36;101504.49;;;25.75;59.66
73918;BME280;62265;52.280;5.162;2022-08-19T09:13:09;101501.31;;;25.80;59.56
73918;BME280;62265;52.280;5.162;2022-08-19T09:15:42;101503.46;;;25.86;59.23
73918;BME280;62265;52.280;5.162;2022-08-19T09:18:11;101504.28;;;25.92;59.17
73918;BME280;62265;52.280;5.162;2022-08-19T09:20:38;101507.00;;;25.98;58.99
73918;BME280;62265;52.280;5.162;2022-08-19T09:23:04;101510.44;;;25.96;59.29
73918;BME280;62265;52.280;5.162;2022-08-19T09:25:31;101513.41;;;25.94;59.21
73918;BME280;62265;52.280;5.162;2022-08-19T09:27:57;101512.73;;;25.93;59.04
73918;BME280;62265;52.280;5.162;2022-08-19T09:30:27;101511.57;;;25.93;59.27
73918;BME280;62265;52.280;5.162;2022-08-19T09:32:54;101509.78;;;25.98;58.95
73918;BME280;62265;52.280;5.162;2022-08-19T09:35:23;101510.20;;;26.05;58.64
73918;BME280;62265;52.280;5.162;2022-08-19T09:37:51;101512.50;;;26.15;58.52
73918;BME280;62265;52.280;5.162;2022-08-19T09:40:18;101513.36;;;26.23;58.22
73918;BME280;62265;52.280;5.162;2022-08-19T09:42:46;101514.23;;;26.29;58.06
73918;BME280;62265;52.280;5.162;2022-08-19T09:45:13;101514.97;;;26.33;58.22
73918;BME280;62265;52.280;5.162;2022-08-19T09:47:40;101514.17;;;26.36;58.16
73918;BME280;62265;52.280;5.162;2022-08-19T09:50:10;101515.54;;;26.41;57.91
73918;BME280;62265;52.280;5.162;2022-08-19T09:52:37;101518.52;;;26.44;57.72
73918;BME280;62265;52.280;5.162;2022-08-19T09:55:05;101519.65;;;26.46;57.66
73918;BME280;62265;52.280;5.162;2022-08-19T09:57:34;101520.05;;;26.44;57.54
73918;BME280;62265;52.280;5.162;2022-08-19T10:00:02;101518.61;;;26.44;57.59
73918;BME280;62265;52.280;5.162;2022-08-19T10:02:30;101517.64;;;26.44;57.79
73918;BME280;62265;52.280;5.162;2022-08-19T10:04:57;101515.51;;;26.45;58.09
73918;BME280;62265;52.280;5.162;2022-08-19T10:07:23;101515.86;;;26.47;58.01
73918;BME280;62265;52.280;5.162;2022-08-19T10:09:50;101518.30;;;26.48;57.61
73918;BME280;62265;52.280;5.162;2022-08-19T10:12:16;101516.98;;;26.49;57.60
73918;BME280;62265;52.280;5.162;2022-08-19T10:14:43;101514.18;;;26.54;57.46
73918;BME280;62265;52.280;5.162;2022-08-19T10:17:10;101511.01;;;26.56;57.57
73918;BME280;62265;52.280;5.162;2022-08-19T10:19:37;101503.65;;;26.57;57.60
73918;BME280;62265;52.280;5.162;2022-08-19T10:22:05;101501.90;;;26.62;57.34
73918;BME280;62265;52.280;5.162;2022-08-19T10:24:32;101503.17;;;26.70;57.10
73918;BME280;62265;52.280;5.162;2022-08-19T10:27:00;101502.32;;;26.76;57.19
73918;BME280;62265;52.280;5.162;2022-08-19T10:29:27;101498.76;;;26.84;56.94
73918;BME280;62265;52.280;5.162;2022-08-19T10:31:54;101501.84;;;26.91;56.81
73918;BME280;62265;52.280;5.162;2022-08-19T10:34:21;101499.04;;;26.94;56.52
73918;BME280;62265;52.280;5.162;2022-08-19T10:36:48;101498.24;;;26.92;56.66
73918;BME280;62265;52.280;5.162;2022-08-19T10:39:15;101499.52;;;26.88;57.04
73918;BME280;62265;52.280;5.162;2022-08-19T10:41:42;101502.16;;;26.85;56.62
73918;BME280;62265;52.280;5.162;2022-08-19T10:44:11;101499.76;;;26.90;56.52
73918;BME280;62265;52.280;5.162;2022-08-19T10:46:41;101505.54;;;26.93;56.18
73918;BME280;62265;52.280;5.162;2022-08-19T10:49:10;101503.50;;;26.88;56.17
73918;BME280;62265;52.280;5.162;2022-08-19T10:51:37;101500.60;;;26.89;56.36
73918;BME280;62265;52.280;5.162;2022-08-19T10:54:04;101494.59;;;26.90;56.35
73918;BME280;62265;52.280;5.162;2022-08-19T10:56:32;101493.27;;;26.93;56.07
73918;BME280;62265;52.280;5.162;2022-08-19T10:58:59;101494.82;;;26.94;55.52
73918;BME280;62265;52.280;5.162;2022-08-19T11:01:26;101493.03;;;26.92;55.39
73918;BME280;62265;52.280;5.162;2022-08-19T11:03:53;101500.71;;;26.91;55.52
73918;BME280;62265;52.280;5.162;2022-08-19T11:06:20;101503.94;;;26.90;55.75
73918;BME280;62265;52.280;5.162;2022-08-19T11:08:46;101507.72;;;26.88;55.58
73918;BME280;62265;52.280;5.162;2022-08-19T11:11:13;101520.57;;;26.76;58.36
73918;BME280;62265;52.280;5.162;2022-08-19T11:13:41;101517.27;;;26.63;60.34
73918;BME280;62265;52.280;5.162;2022-08-19T11:16:12;101521.05;;;26.50;60.80
73918;BME280;62265;52.280;5.162;2022-08-19T11:18:41;101520.11;;;26.47;60.00
73918;BME280;62265;52.280;5.162;2022-08-19T11:21:11;101519.16;;;26.49;59.12
73918;BME280;62265;52.280;5.162;2022-08-19T11:23:39;101515.82;;;26.52;59.71
73918;BME280;62265;52.280;5.162;2022-08-19T11:26:06;101511.40;;;26.57;60.20
73918;BME280;62265;52.280;5.162;2022-08-19T11:28:33;101513.00;;;26.58;60.54
73918;BME280;62265;52.280;5.162;2022-08-19T11:31:00;101511.27;;;26.59;61.23
73918;BME280;62265;52.280;5.162;2022-08-19T11:33:27;101508.89;;;26.57;61.35
73918;BME280;62265;52.280;5.162;2022-08-19T11:35:53;101507.26;;;26.59;61.95
73918;BME280;62265;52.280;5.162;2022-08-19T11:38:20;101507.43;;;26.62;62.51
73918;BME280;62265;52.280;5.162;2022-08-19T11:40:54;101506.34;;;26.56;63.42
73918;BME280;62265;52.280;5.162;2022-08-19T11:43:21;101509.25;;;26.61;62.89
73918;BME280;62265;52.280;5.162;2022-08-19T11:45:48;101509.86;;;26.62;62.67
73918;BME280;62265;52.280;5.162;2022-08-19T11:48:15;101509.56;;;26.62;61.66
73918;BME280;62265;52.280;5.162;2022-08-19T11:50:42;101507.32;;;26.66;61.15
73918;BME280;62265;52.280;5.162;2022-08-19T11:53:09;101509.00;;;26.70;60.50
73918;BME280;62265;52.280;5.162;2022-08-19T11:55:37;101512.13;;;26.70;60.68
73918;BME280;62265;52.280;5.162;2022-08-19T11:58:04;101520.39;;;26.71;61.38
73918;BME280;62265;52.280;5.162;2022-08-19T12:00:31;101522.95;;;26.74;60.36
73918;BME280;62265;52.280;5.162;2022-08-19T12:02:57;101519.06;;;26.73;59.79
73918;BME280;62265;52.280;5.162;2022-08-19T12:05:24;101520.26;;;26.75;59.65
73918;BME280;62265;52.280;5.162;2022-08-19T12:07:51;101522.97;;;26.71;59.15
73918;BME280;62265;52.280;5.162;2022-08-19T12:10:18;101522.67;;;26.71;59.43
73918;BME280;62265;52.280;5.162;2022-08-19T12:12:44;101520.68;;;26.65;59.77
73918;BME280;62265;52.280;5.162;2022-08-19T12:15:12;101521.89;;;26.68;60.08
73918;BME280;62265;52.280;5.162;2022-08-19T12:17:40;101527.40;;;26.65;60.97
73918;BME280;62265;52.280;5.162;2022-08-19T12:20:08;101530.50;;;26.55;61.74
73918;BME280;62265;52.280;5.162;2022-08-19T12:22:36;101531.01;;;26.48;62.00
73918;BME280;62265;52.280;5.162;2022-08-19T12:25:05;101530.94;;;26.41;61.38
73918;BME280;62265;52.280;5.162;2022-08-19T12:27:32;101526.26;;;26.39;61.72
73918;BME280;62265;52.280;5.162;2022-08-19T12:29:58;101524.67;;;26.44;61.85
73918;BME280;62265;52.280;5.162;2022-08-19T12:32:25;101522.41;;;26.47;61.47
73918;BME280;62265;52.280;5.162;2022-08-19T12:34:53;101521.42;;;26.54;61.16
73918;BME280;62265;52.280;5.162;2022-08-19T12:37:20;101521.31;;;26.57;61.34
73918;BME280;62265;52.280;5.162;2022-08-19T12:39:47;101517.64;;;26.53;61.31
73918;BME280;62265;52.280;5.162;2022-08-19T12:42:14;101519.15;;;26.50;62.09
73918;BME280;62265;52.280;5.162;2022-08-19T12:44:42;101517.29;;;26.47;62.81
73918;BME280;62265;52.280;5.162;2022-08-19T12:47:11;101513.27;;;26.49;62.56
73918;BME280;62265;52.280;5.162;2022-08-19T12:49:39;101514.94;;;26.49;62.50
73918;BME280;62265;52.280;5.162;2022-08-19T12:52:07;101513.61;;;26.50;62.36